Time;durP1;ratioP1;P1;durP2;ratioP2;P2;SDS_P1;SDS_P2;PMS_P1;PMS_P2;Temp;Humidity;BMP_temperature;BMP_pressure;BME280_temperature;BME280_humidity;BME280_pressure;Samples;Min_cycle;Max_cycle;Signal;HPM_P1;HPM_P2
2022/11/06 00:00:33;;;;;;;;;;;;;;;8.47;100.00;101146.38;5027691;28;20523;-76
2022/11/06 00:02:59;;;;;;;;;;;;;;;8.45;100.00;101135.91;5041663;28;19933;-77
2022/11/06 00:08:09;;;;;;;;;;;;;;;8.41;100.00;101139.53;5024880;28;19924;-76
2022/11/06 00:10:34;;;;;;;;;;;;;;;8.39;100.00;101134.31;5041816;28;19925;-76
2022/11/06 00:13:00;;;;;;;;;;;;;;;8.38;100.00;101144.91;5021852;28;19996;-77
2022/11/06 00:15:26;;;;;;;;;;;;;;;8.38;100.00;101135.22;5026611;28;19932;-77
2022/11/06 00:17:51;;;;;;;;;;;;;;;8.36;100.00;101134.41;5039383;28;19928;-76
2022/11/06 00:20:16;;;;;;;;;;;;;;;8.37;100.00;101124.72;5042277;28;19956;-76
2022/11/06 00:22:42;;;;;;;;;;;;;;;8.35;100.00;101126.53;5026250;28;19984;-76
2022/11/06 00:25:07;;;;;;;;;;;;;;;8.35;100.00;101132.69;5041759;28;19924;-77
2022/11/06 00:27:36;;;;;;;;;;;;;;;8.36;100.00;101130.91;5041957;28;19929;-76
2022/11/06 00:30:02;;;;;;;;;;;;;;;8.36;100.00;101138.81;5041285;28;20015;-76
2022/11/06 00:32:27;;;;;;;;;;;;;;;8.37;100.00;101132.63;5025238;28;19928;-76
2022/11/06 00:34:53;;;;;;;;;;;;;;;8.36;100.00;101128.25;5021505;28;20031;-76
2022/11/06 00:37:18;;;;;;;;;;;;;;;8.37;100.00;101129.97;5009445;28;19929;-76
2022/11/06 00:39:43;;;;;;;;;;;;;;;8.39;100.00;101130.81;5039036;28;19939;-76
2022/11/06 00:42:09;;;;;;;;;;;;;;;8.38;100.00;101115.88;5041927;28;19933;-76
2022/11/06 00:44:34;;;;;;;;;;;;;;;8.39;100.00;101118.47;5041455;28;19936;-76
2022/11/06 00:46:59;;;;;;;;;;;;;;;8.40;100.00;101114.06;5041805;28;20462;-76
2022/11/06 00:49:26;;;;;;;;;;;;;;;8.40;100.00;101119.34;5042175;28;21415;-76
2022/11/06 00:51:51;;;;;;;;;;;;;;;8.40;100.00;101120.19;5009487;28;19928;-76
2022/11/06 00:54:17;;;;;;;;;;;;;;;8.41;100.00;101126.34;5041575;28;19968;-76
2022/11/06 00:56:42;;;;;;;;;;;;;;;8.41;100.00;101127.19;5041822;28;20362;-76
2022/11/06 00:59:09;;;;;;;;;;;;;;;8.42;100.00;101128.94;5026138;28;19978;-77
2022/11/06 01:01:35;;;;;;;;;;;;;;;8.43;100.00;101124.50;5010579;28;20012;-76
2022/11/06 01:04:05;;;;;;;;;;;;;;;8.42;100.00;101122.78;5023145;28;20025;-77
2022/11/06 01:06:35;;;;;;;;;;;;;;;8.41;100.00;101116.63;5044693;28;20007;-75
2022/11/06 01:09:01;;;;;;;;;;;;;;;8.44;100.00;101120.97;5045010;28;20027;-76
2022/11/06 01:11:28;;;;;;;;;;;;;;;8.45;100.00;101120.06;5042450;28;19981;-76
2022/11/06 01:13:55;;;;;;;;;;;;;;;8.47;100.00;101114.72;5029588;28;19929;-77
2022/11/06 01:16:20;;;;;;;;;;;;;;;8.46;100.00;101116.53;5030135;28;19948;-76
2022/11/06 01:18:46;;;;;;;;;;;;;;;8.47;100.00;101118.25;5013049;28;19928;-76
2022/11/06 01:21:12;;;;;;;;;;;;;;;8.48;100.00;101105.88;5042865;28;19929;-76
2022/11/06 01:23:38;;;;;;;;;;;;;;;8.48;100.00;101111.16;5031816;28;19931;-76
2022/11/06 01:26:04;;;;;;;;;;;;;;;8.50;100.00;101101.44;5028614;28;19925;-76
2022/11/06 01:28:30;;;;;;;;;;;;;;;8.49;100.00;101100.56;5029417;28;19932;-76
2022/11/06 01:30:56;;;;;;;;;;;;;;;8.50;100.00;101096.19;5041852;28;20317;-75
2022/11/06 01:33:21;;;;;;;;;;;;;;;8.50;100.00;101096.19;5046039;28;19929;-76
2022/11/06 01:35:49;;;;;;;;;;;;;;;8.49;100.00;101095.28;5042654;28;20102;-77
2022/11/06 01:38:14;;;;;;;;;;;;;;;8.50;100.00;101093.53;5030924;28;20220;-77
2022/11/06 01:40:40;;;;;;;;;;;;;;;8.50;100.00;101083.81;5029452;28;20378;-77
2022/11/06 01:43:32;;;;;;;;;;;;;;;8.50;100.00;101094.38;5011232;28;19934;-76
2022/11/06 01:45:58;;;;;;;;;;;;;;;8.50;100.00;101090.91;5017679;28;19937;-75
2022/11/06 01:48:25;;;;;;;;;;;;;;;8.50;100.00;101089.09;5044608;28;19966;-77
2022/11/06 01:50:52;;;;;;;;;;;;;;;8.50;100.00;101085.63;5044577;28;20798;-76
2022/11/06 01:53:17;;;;;;;;;;;;;;;8.50;100.00;101086.47;5044595;28;19925;-76
2022/11/06 01:55:44;;;;;;;;;;;;;;;8.49;100.00;101076.81;5029070;28;19943;-75
2022/11/06 01:58:10;;;;;;;;;;;;;;;8.49;100.00;101060.16;5044369;28;19939;-76
2022/11/06 02:00:35;;;;;;;;;;;;;;;8.49;100.00;101076.81;5031020;28;20027;-77
2022/11/06 02:03:01;;;;;;;;;;;;;;;8.49;100.00;101070.69;5024958;28;19929;-76
2022/11/06 02:05:27;;;;;;;;;;;;;;;8.48;100.00;101069.81;5044326;28;19929;-76
2022/11/06 02:07:52;;;;;;;;;;;;;;;8.48;100.00;101080.38;5029015;28;19970;-76
2022/11/06 02:10:17;;;;;;;;;;;;;;;8.48;100.00;101068.94;5030334;28;20383;-77
2022/11/06 02:12:56;;;;;;;;;;;;;;;8.47;100.00;101062.81;5024980;28;20075;-77
2022/11/06 02:15:21;;;;;;;;;;;;;;;8.48;100.00;101069.81;5025087;28;19928;-77
2022/11/06 02:17:50;;;;;;;;;;;;;;;8.49;100.00;101070.69;5043183;28;20130;-76
2022/11/06 02:20:25;;;;;;;;;;;;;;;8.50;100.00;101069.78;5044246;28;19924;-77
2022/11/06 02:22:53;;;;;;;;;;;;;;;8.50;100.00;101061.88;5043608;28;19925;-76
2022/11/06 02:25:28;;;;;;;;;;;;;;;8.51;100.00;101060.94;5028479;28;19924;-76
2022/11/06 02:27:57;;;;;;;;;;;;;;;8.52;100.00;101073.25;5043624;28;19924;-76
2022/11/06 02:30:22;;;;;;;;;;;;;;;8.52;100.00;101067.97;5041085;28;19971;-76
2022/11/06 02:32:54;;;;;;;;;;;;;;;8.53;100.00;101067.94;5041024;28;20442;-76
2022/11/06 02:35:23;;;;;;;;;;;;;;;8.55;100.00;101059.94;5043432;28;20509;-77
2022/11/06 02:37:50;;;;;;;;;;;;;;;8.57;100.00;101050.22;5041007;28;20028;-76
2022/11/06 02:40:16;;;;;;;;;;;;;;;8.58;100.00;101058.97;5028124;28;20019;-77
2022/11/06 02:42:42;;;;;;;;;;;;;;;8.59;100.00;101053.66;5040942;28;19947;-76
2022/11/06 02:45:09;;;;;;;;;;;;;;;8.61;100.00;101051.81;5040682;28;19933;-77
2022/11/06 02:47:34;;;;;;;;;;;;;;;8.62;100.00;101050.94;5030631;28;19925;-76
2022/11/06 02:50:03;;;;;;;;;;;;;;;8.64;100.00;101053.50;5027728;28;19939;-77
2022/11/06 02:52:36;;;;;;;;;;;;;;;8.66;100.00;101059.63;5010561;28;19960;-77
2022/11/06 02:55:05;;;;;;;;;;;;;;;8.66;100.00;101057.81;5027252;28;19983;-75
2022/11/06 02:57:31;;;;;;;;;;;;;;;8.66;100.00;101057.81;5043921;28;19983;-77
2022/11/06 02:59:56;;;;;;;;;;;;;;;8.67;100.00;101054.25;5029646;28;20056;-77
2022/11/06 03:02:27;;;;;;;;;;;;;;;8.70;100.00;101063.84;5043228;28;19933;-77
2022/11/06 03:04:54;;;;;;;;;;;;;;;8.71;100.00;101056.81;5029493;28;19946;-77
2022/11/06 03:07:27;;;;;;;;;;;;;;;8.72;100.00;101069.94;5040637;28;19978;-77
2022/11/06 03:09:53;;;;;;;;;;;;;;;8.72;100.00;101051.47;5023826;28;19928;-77
2022/11/06 03:12:27;;;;;;;;;;;;;;;8.73;100.00;101047.94;4996761;28;19936;-77
2022/11/06 03:14:59;;;;;;;;;;;;;;;8.75;100.00;101050.50;5010915;28;19932;-77
2022/11/06 03:17:28;;;;;;;;;;;;;;;8.76;100.00;101053.09;5046130;28;20015;-77
2022/11/06 03:19:55;;;;;;;;;;;;;;;8.78;100.00;101053.88;5042759;28;19983;-77
2022/11/06 03:22:29;;;;;;;;;;;;;;;8.79;100.00;101054.75;5027121;28;20398;-76
2022/11/06 03:24:58;;;;;;;;;;;;;;;8.80;100.00;101043.28;5037136;28;21423;-77
2022/11/06 03:27:37;;;;;;;;;;;;;;;8.80;100.00;101049.44;5012531;28;19928;-77
2022/11/06 03:30:05;;;;;;;;;;;;;;;8.82;100.00;101047.59;5040310;28;20040;-77
2022/11/06 03:32:38;;;;;;;;;;;;;;;8.82;100.00;101046.72;5043718;28;19970;-77
2022/11/06 03:35:08;;;;;;;;;;;;;;;8.84;100.00;101052.84;5042685;28;19967;-77
2022/11/06 03:37:35;;;;;;;;;;;;;;;8.86;100.00;101048.34;5040266;28;20349;-77
2022/11/06 03:40:02;;;;;;;;;;;;;;;8.87;100.00;101036.88;5028693;28;19931;-77
2022/11/06 03:42:29;;;;;;;;;;;;;;;8.88;100.00;101041.22;5016315;28;19932;-77
2022/11/06 03:44:56;;;;;;;;;;;;;;;8.88;100.00;101041.22;5025721;28;19933;-77
2022/11/06 03:47:23;;;;;;;;;;;;;;;8.90;100.00;101041.19;5011258;28;19928;-77
2022/11/06 03:49:50;;;;;;;;;;;;;;;8.90;100.00;101049.97;5042119;28;19924;-77
2022/11/06 03:52:22;;;;;;;;;;;;;;;8.92;100.00;101031.41;5022306;28;19932;-76
2022/11/06 03:54:48;;;;;;;;;;;;;;;8.92;100.00;101026.13;5043976;28;19924;-77
2022/11/06 03:57:19;;;;;;;;;;;;;;;8.93;100.00;101027.88;5026774;28;20508;-77
2022/11/06 03:59:49;;;;;;;;;;;;;;;8.93;100.00;101036.66;5029315;28;20306;-77
2022/11/06 04:02:15;;;;;;;;;;;;;;;8.94;100.00;101032.25;5016175;28;19924;-76
2022/11/06 04:04:47;;;;;;;;;;;;;;;8.95;100.00;101032.16;5038949;28;19928;-76
2022/11/06 04:07:13;;;;;;;;;;;;;;;8.94;100.00;101030.44;5042368;28;19924;-77
2022/11/06 04:13:56;;;;;;;;;;;;;;;8.95;100.00;101039.25;5028966;28;19929;-76
2022/11/06 04:15:29;;;;;;;;;;;;;;;8.94;100.00;101045.44;5041787;28;19963;-77
2022/11/06 04:17:54;;;;;;;;;;;;;;;8.93;100.00;101026.09;5039713;28;19928;-76
2022/11/06 04:23:07;;;;;;;;;;;;;;;8.94;100.00;101040.16;5042474;28;19951;-77
2022/11/06 04:28:56;;;;;;;;;;;;;;;8.92;100.00;101042.84;5028955;28;20002;-77
2022/11/06 04:31:28;;;;;;;;;;;;;;;8.91;100.00;101041.13;5021115;28;19928;-77
2022/11/06 04:33:53;;;;;;;;;;;;;;;8.90;100.00;101043.81;5026197;28;20300;-76
2022/11/06 04:36:19;;;;;;;;;;;;;;;8.90;100.00;101041.19;5038971;28;20027;-77
2022/11/06 04:38:52;;;;;;;;;;;;;;;8.90;100.00;101033.25;5022564;28;19924;-77
2022/11/06 04:41:18;;;;;;;;;;;;;;;8.89;100.00;101037.66;5041981;28;19929;-76
2022/11/06 04:43:45;;;;;;;;;;;;;;;8.88;100.00;101035.94;5046136;28;19932;-77
2022/11/06 04:46:11;;;;;;;;;;;;;;;8.88;100.00;101041.22;5046111;28;21407;-77
2022/11/06 04:48:37;;;;;;;;;;;;;;;8.88;100.00;101024.53;5029775;28;19928;-76
2022/11/06 04:51:03;;;;;;;;;;;;;;;8.87;100.00;101023.66;5016965;28;19936;-76
2022/11/06 04:53:28;;;;;;;;;;;;;;;8.87;100.00;101020.19;5030512;28;19940;-77
2022/11/06 04:55:55;;;;;;;;;;;;;;;8.87;100.00;101009.63;5029882;28;19925;-77
2022/11/06 04:58:20;;;;;;;;;;;;;;;8.85;100.00;101008.78;5012426;28;19925;-77
2022/11/06 05:00:46;;;;;;;;;;;;;;;8.85;100.00;101003.50;4995933;28;19962;-77
2022/11/06 05:03:12;;;;;;;;;;;;;;;8.82;100.00;100997.44;5042832;28;21904;-76
2022/11/06 05:05:38;;;;;;;;;;;;;;;8.81;100.00;101014.19;5015325;28;19929;-77
2022/11/06 05:08:03;;;;;;;;;;;;;;;8.80;100.00;101012.47;5018840;28;19931;-76
2022/11/06 05:10:29;;;;;;;;;;;;;;;8.80;100.00;101007.19;5032154;28;19931;-77
2022/11/06 05:12:54;;;;;;;;;;;;;;;8.79;100.00;101008.13;5013567;28;20027;-77
2022/11/06 05:15:20;;;;;;;;;;;;;;;8.78;100.00;101002.88;5045652;28;19935;-77
2022/11/06 05:17:45;;;;;;;;;;;;;;;8.77;100.00;100994.09;5025090;28;19972;-77
2022/11/06 05:20:11;;;;;;;;;;;;;;;8.76;100.00;100989.72;5045294;28;19933;-76
2022/11/06 05:25:24;;;;;;;;;;;;;;;8.75;100.00;100987.13;5045361;28;19931;-77
2022/11/06 05:27:49;;;;;;;;;;;;;;;8.75;100.00;100987.13;5029109;28;19929;-77
2022/11/06 05:30:15;;;;;;;;;;;;;;;8.73;100.00;100979.28;5029478;28;19956;-76
2022/11/06 05:32:40;;;;;;;;;;;;;;;8.72;100.00;100980.19;5042365;28;20295;-77
2022/11/06 05:35:06;;;;;;;;;;;;;;;8.71;100.00;100985.53;5044864;28;19932;-77
2022/11/06 05:37:31;;;;;;;;;;;;;;;8.71;100.00;100994.31;5025463;28;19956;-76
2022/11/06 05:39:57;;;;;;;;;;;;;;;8.69;100.00;100988.22;5011369;28;19967;-76
2022/11/06 05:42:22;;;;;;;;;;;;;;;8.68;100.00;100997.06;5042048;28;19978;-77
2022/11/06 05:44:47;;;;;;;;;;;;;;;8.68;100.00;100990.00;5011491;28;19935;-77
2022/11/06 05:47:13;;;;;;;;;;;;;;;8.67;100.00;100985.63;5025391;28;19929;-77
2022/11/06 05:49:38;;;;;;;;;;;;;;;8.67;100.00;100974.22;5044351;28;20554;-77
2022/11/06 05:52:03;;;;;;;;;;;;;;;8.68;100.00;100982.06;5044604;28;20089;-77
2022/11/06 05:54:29;;;;;;;;;;;;;;;8.66;100.00;100978.63;5045961;28;19925;-77
2022/11/06 05:56:54;;;;;;;;;;;;;;;8.66;100.00;100975.16;5044234;28;19925;-76
2022/11/06 05:59:20;;;;;;;;;;;;;;;8.66;100.00;100972.50;5043939;28;19925;-76
2022/11/06 06:01:45;;;;;;;;;;;;;;;8.64;100.00;100972.56;5029011;28;20063;-76
2022/11/06 06:04:10;;;;;;;;;;;;;;;8.65;100.00;100976.03;5058342;28;20054;-76
2022/11/06 06:06:36;;;;;;;;;;;;;;;8.64;100.00;100969.03;5044472;28;19967;-77
2022/11/06 06:09:01;;;;;;;;;;;;;;;8.62;100.00;100965.59;5044040;28;19924;-77
2022/11/06 06:11:27;;;;;;;;;;;;;;;8.61;100.00;100979.72;5043980;28;19929;-76
2022/11/06 06:13:52;;;;;;;;;;;;;;;8.60;100.00;100975.38;5041564;28;20388;-76
2022/11/06 06:16:17;;;;;;;;;;;;;;;8.58;100.00;100966.63;5044621;28;19929;-76
2022/11/06 06:18:43;;;;;;;;;;;;;;;8.56;100.00;100967.53;5028250;28;19924;-76
2022/11/06 06:21:08;;;;;;;;;;;;;;;8.55;100.00;100962.31;5044349;28;19959;-76
2022/11/06 06:23:34;;;;;;;;;;;;;;;8.54;100.00;100963.22;5023869;28;19935;-76
2022/11/06 06:25:59;;;;;;;;;;;;;;;8.51;100.00;100964.19;5043771;28;19950;-76
2022/11/06 06:28:25;;;;;;;;;;;;;;;8.50;100.00;100962.44;5043843;28;19928;-76
2022/11/06 06:30:50;;;;;;;;;;;;;;;8.48;100.00;100964.28;5043981;28;19935;-76
2022/11/06 06:33:16;;;;;;;;;;;;;;;8.47;100.00;100961.69;5043679;28;19974;-76
2022/11/06 06:35:41;;;;;;;;;;;;;;;8.45;100.00;100969.69;5044631;28;20397;-76
2022/11/06 06:38:06;;;;;;;;;;;;;;;8.43;100.00;100975.00;5043698;28;19969;-76
2022/11/06 06:40:32;;;;;;;;;;;;;;;8.42;100.00;100962.72;5043752;28;19929;-75
2022/11/06 06:42:57;;;;;;;;;;;;;;;8.43;100.00;100969.72;5028021;28;20003;-76
2022/11/06 06:45:23;;;;;;;;;;;;;;;8.41;100.00;100974.16;5027263;28;20346;-76
2022/11/06 06:47:49;;;;;;;;;;;;;;;8.41;100.00;100971.53;5044767;28;19924;-75
2022/11/06 06:50:14;;;;;;;;;;;;;;;8.41;100.00;100976.81;5043826;28;20406;-76
2022/11/06 06:52:39;;;;;;;;;;;;;;;8.40;100.00;100971.59;5024551;28;20055;-76
2022/11/06 06:55:05;;;;;;;;;;;;;;;8.41;100.00;100971.53;5042721;28;19928;-76
2022/11/06 06:57:30;;;;;;;;;;;;;;;8.42;100.00;100964.50;5027764;28;19978;-76
2022/11/06 06:59:56;;;;;;;;;;;;;;;8.41;100.00;100966.25;5057951;28;19932;-76
2022/11/06 07:02:21;;;;;;;;;;;;;;;8.42;100.00;100961.84;5027776;28;19925;-77
2022/11/06 07:04:46;;;;;;;;;;;;;;;8.42;100.00;100965.38;5042748;28;19932;-76
2022/11/06 07:07:12;;;;;;;;;;;;;;;8.42;100.00;100959.22;5028277;28;20383;-76
2022/11/06 07:09:37;;;;;;;;;;;;;;;8.43;100.00;100964.44;5042459;28;20027;-76
2022/11/06 07:12:03;;;;;;;;;;;;;;;8.42;100.00;100961.84;5043355;28;19928;-76
2022/11/06 07:14:28;;;;;;;;;;;;;;;8.43;100.00;100947.75;5043300;28;19936;-76
2022/11/06 07:16:54;;;;;;;;;;;;;;;8.41;100.00;100957.50;5027106;28;20398;-76
2022/11/06 07:19:19;;;;;;;;;;;;;;;8.43;100.00;100963.56;5026943;28;19971;-76
2022/11/06 07:21:45;;;;;;;;;;;;;;;8.42;100.00;100960.09;5043000;28;20016;-76
2022/11/06 07:24:10;;;;;;;;;;;;;;;8.42;100.00;100954.81;5042575;28;19924;-76
2022/11/06 07:26:35;;;;;;;;;;;;;;;8.42;100.00;100960.09;5042954;28;19928;-76
2022/11/06 07:29:01;;;;;;;;;;;;;;;8.43;100.00;100963.56;5027264;28;20311;-76
2022/11/06 07:31:26;;;;;;;;;;;;;;;8.43;100.00;100950.38;5027103;28;20007;-76
2022/11/06 07:33:52;;;;;;;;;;;;;;;8.42;100.00;100952.16;5026094;28;19959;-76
2022/11/06 07:36:17;;;;;;;;;;;;;;;8.43;100.00;100960.94;5042450;28;19929;-77
2022/11/06 07:38:43;;;;;;;;;;;;;;;8.44;100.00;100962.66;5042119;28;19928;-77
2022/11/06 07:41:09;;;;;;;;;;;;;;;8.44;100.00;100952.09;5027179;28;19931;-76
2022/11/06 07:43:34;;;;;;;;;;;;;;;8.44;100.00;100944.19;5027072;28;19971;-76
2022/11/06 07:46:00;;;;;;;;;;;;;;;8.47;100.00;100951.13;5012311;28;20490;-76
2022/11/06 07:48:26;;;;;;;;;;;;;;;8.47;100.00;100949.38;5042207;28;19929;-77
2022/11/06 07:50:52;;;;;;;;;;;;;;;8.48;100.00;100942.28;4995899;28;19995;-76
2022/11/06 07:53:17;;;;;;;;;;;;;;;8.49;100.00;100944.88;5042572;28;19932;-76
2022/11/06 07:55:49;;;;;;;;;;;;;;;8.48;100.00;100937.88;5042253;28;20019;-76
2022/11/06 07:58:15;;;;;;;;;;;;;;;8.50;100.00;100943.97;5026200;28;19929;-76
2022/11/06 08:00:45;;;;;;;;;;;;;;;8.50;100.00;100941.31;5026695;28;20440;-76
2022/11/06 08:03:10;;;;;;;;;;;;;;;8.51;100.00;100950.13;5043329;28;20383;-76
2022/11/06 08:05:35;;;;;;;;;;;;;;;8.52;100.00;100950.09;5041602;28;19929;-76
2022/11/06 08:08:01;;;;;;;;;;;;;;;8.52;100.00;100941.31;5021462;28;19928;-76
2022/11/06 08:10:26;;;;;;;;;;;;;;;8.53;100.00;100948.31;5041961;28;19928;-76
2022/11/06 08:12:51;;;;;;;;;;;;;;;8.54;100.00;100952.66;5042329;28;20015;-77
2022/11/06 08:15:17;;;;;;;;;;;;;;;8.53;100.00;100945.66;5037373;28;19929;-76
2022/11/06 08:17:42;;;;;;;;;;;;;;;8.53;100.00;100946.53;5042065;28;20435;-76
2022/11/06 08:20:08;;;;;;;;;;;;;;;8.54;100.00;100939.47;5055936;28;19928;-76
2022/11/06 08:22:36;;;;;;;;;;;;;;;8.55;100.00;100939.44;5042405;28;19929;-76
2022/11/06 08:25:02;;;;;;;;;;;;;;;8.58;100.00;100929.66;5041602;28;19925;-76
2022/11/06 08:27:27;;;;;;;;;;;;;;;8.58;100.00;100938.47;5041989;28;20405;-76
2022/11/06 08:29:52;;;;;;;;;;;;;;;8.61;100.00;100945.41;5026131;28;19925;-76
2022/11/06 08:32:18;;;;;;;;;;;;;;;8.63;100.00;100944.44;5041868;28;19924;-76
2022/11/06 08:34:43;;;;;;;;;;;;;;;8.66;100.00;100946.13;5026700;28;19929;-76
2022/11/06 08:37:09;;;;;;;;;;;;;;;8.67;100.00;100938.13;5042456;28;20387;-76
2022/11/06 08:39:35;;;;;;;;;;;;;;;8.69;100.00;100940.72;5041541;28;19964;-76
2022/11/06 08:42:00;;;;;;;;;;;;;;;8.71;100.00;100936.22;5026302;28;20448;-76
2022/11/06 08:44:26;;;;;;;;;;;;;;;8.73;100.00;100937.06;5041815;28;20496;-76
2022/11/06 08:46:51;;;;;;;;;;;;;;;8.73;100.00;100928.25;5038906;28;19924;-76
2022/11/06 08:49:16;;;;;;;;;;;;;;;8.74;100.00;100916.78;5055766;28;20055;-76
2022/11/06 08:51:42;;;;;;;;;;;;;;;8.74;100.00;100917.66;5042341;28;19975;-76
2022/11/06 08:54:08;;;;;;;;;;;;;;;8.73;100.00;100923.88;5041735;28;19943;-76
2022/11/06 08:56:34;;;;;;;;;;;;;;;8.76;100.00;100910.53;5028344;28;19931;-76
2022/11/06 08:58:59;;;;;;;;;;;;;;;8.76;100.00;100894.69;5041865;28;19932;-76
2022/11/06 09:01:28;;;;;;;;;;;;;;;8.76;100.00;100899.97;5041354;28;20007;-76
2022/11/06 09:03:53;;;;;;;;;;;;;;;8.78;100.00;100898.13;5022572;28;20685;-76
2022/11/06 09:06:18;;;;;;;;;;;;;;;8.79;100.00;100893.72;5025787;28;19940;-76
2022/11/06 09:08:44;;;;;;;;;;;;;;;8.79;100.00;100896.38;5040859;28;20002;-76
2022/11/06 09:11:10;;;;;;;;;;;;;;;8.79;100.00;100894.59;5041323;28;20455;-76
2022/11/06 09:13:36;;;;;;;;;;;;;;;8.78;100.00;100892.84;5041906;28;20329;-76
2022/11/06 09:16:01;;;;;;;;;;;;;;;8.80;100.00;100890.16;5040980;28;19955;-76
2022/11/06 09:18:27;;;;;;;;;;;;;;;8.79;100.00;100893.72;5025933;28;19929;-76
2022/11/06 09:20:54;;;;;;;;;;;;;;;8.80;100.00;100892.81;5009276;28;19929;-76
2022/11/06 09:23:19;;;;;;;;;;;;;;;8.80;100.00;100893.69;5042275;28;19956;-77
2022/11/06 09:25:45;;;;;;;;;;;;;;;8.80;100.00;100887.53;5041996;28;19933;-77
2022/11/06 09:28:10;;;;;;;;;;;;;;;8.79;100.00;100880.53;5045018;28;19951;-76
2022/11/06 09:30:36;;;;;;;;;;;;;;;8.79;100.00;100878.75;5029281;28;20160;-76
2022/11/06 09:33:01;;;;;;;;;;;;;;;8.80;100.00;100879.59;5026059;28;19994;-77
2022/11/06 09:35:27;;;;;;;;;;;;;;;8.79;100.00;100873.47;5048024;28;20492;-76
2022/11/06 09:37:53;;;;;;;;;;;;;;;8.80;100.00;100871.69;5031106;28;19929;-77
2022/11/06 09:40:27;;;;;;;;;;;;;;;8.81;100.00;100865.47;5018421;28;19936;-77
2022/11/06 09:42:57;;;;;;;;;;;;;;;8.80;100.00;100867.28;5045290;28;19924;-77
2022/11/06 09:45:23;;;;;;;;;;;;;;;8.81;100.00;100858.44;5044135;28;20519;-77
2022/11/06 09:47:50;;;;;;;;;;;;;;;8.81;100.00;100861.06;5029166;28;21405;-77
2022/11/06 09:50:17;;;;;;;;;;;;;;;8.84;100.00;100860.09;5045215;28;20062;-77
2022/11/06 09:52:44;;;;;;;;;;;;;;;8.85;100.00;100853.91;5028718;28;20079;-78
2022/11/06 09:55:12;;;;;;;;;;;;;;;8.87;100.00;100861.78;5045126;28;20027;-77
2022/11/06 09:57:39;;;;;;;;;;;;;;;8.88;100.00;100853.75;5058639;28;19928;-78
2022/11/06 10:00:05;;;;;;;;;;;;;;;8.90;100.00;100853.72;5013642;28;19925;-77
2022/11/06 10:02:46;;;;;;;;;;;;;;;8.92;100.00;100851.88;5044759;28;20408;-78
2022/11/06 10:05:12;;;;;;;;;;;;;;;8.94;100.00;100855.34;5028786;28;20429;-78
2022/11/06 10:07:38;;;;;;;;;;;;;;;8.95;100.00;100857.03;5044002;28;19929;-78
2022/11/06 10:10:04;;;;;;;;;;;;;;;8.97;100.00;100855.19;5012160;28;19924;-78
2022/11/06 10:12:34;;;;;;;;;;;;;;;8.97;100.00;100849.91;5028870;28;19924;-77
2022/11/06 10:15:00;;;;;;;;;;;;;;;8.98;100.00;100842.88;5040932;28;20374;-77
2022/11/06 10:17:45;;;;;;;;;;;;;;;8.98;100.00;100835.78;5044783;28;19928;-78
2022/11/06 10:20:18;;;;;;;;;;;;;;;8.99;100.00;100826.94;5043803;28;19924;-77
2022/11/06 10:22:49;;;;;;;;;;;;;;;9.01;100.00;100830.41;5017760;28;19928;-77
2022/11/06 10:25:19;;;;;;;;;;;;;;;9.02;100.00;100826.84;5044001;28;19946;-77
2022/11/06 10:27:55;;;;;;;;;;;;;;;9.02;100.00;100832.13;5028555;28;20006;-77
2022/11/06 10:30:20;;;;;;;;;;;;;;;9.02;100.00;100816.28;5028133;28;19928;-78
2022/11/06 10:33:01;;;;;;;;;;;;;;;9.02;100.00;100826.84;5030286;28;20534;-77
2022/11/06 10:35:36;;;;;;;;;;;;;;;9.03;100.00;100822.41;5025035;28;19926;-77
2022/11/06 10:38:04;;;;;;;;;;;;;;;9.03;100.00;100814.47;5042606;28;19929;-77
2022/11/06 10:40:30;;;;;;;;;;;;;;;9.03;100.00;100817.13;5043996;28;19928;-76
2022/11/06 10:43:31;;;;;;;;;;;;;;;9.01;100.00;100808.41;5044111;28;19939;-76
2022/11/06 10:46:02;;;;;;;;;;;;;;;9.02;100.00;100799.56;5008089;28;20023;-77
2022/11/06 10:48:30;;;;;;;;;;;;;;;9.01;100.00;100797.84;5022541;28;20515;-77
2022/11/06 10:51:07;;;;;;;;;;;;;;;9.01;100.00;100798.72;5043790;28;19924;-77
2022/11/06 10:53:33;;;;;;;;;;;;;;;9.02;100.00;100797.78;5043837;28;19928;-77
2022/11/06 10:56:05;;;;;;;;;;;;;;;9.04;100.00;100795.09;5043377;28;20269;-77
2022/11/06 10:58:31;;;;;;;;;;;;;;;9.06;100.00;100795.88;5043120;28;20334;-77
2022/11/06 11:01:00;;;;;;;;;;;;;;;9.07;100.00;100787.91;5023976;28;19939;-76
2022/11/06 11:03:26;;;;;;;;;;;;;;;9.09;100.00;100791.34;5029620;28;20387;-76
2022/11/06 11:05:51;;;;;;;;;;;;;;;9.12;100.00;100781.56;5040240;28;19975;-76
2022/11/06 11:08:29;;;;;;;;;;;;;;;9.15;100.00;100784.09;5027268;28;20390;-76
2022/11/06 11:11:21;;;;;;;;;;;;;;;9.17;100.00;100775.19;5043201;28;19929;-76
2022/11/06 11:13:47;;;;;;;;;;;;;;;9.20;100.00;100774.19;5040875;28;20023;-77
2022/11/06 11:16:17;;;;;;;;;;;;;;;9.22;100.00;100775.00;5029982;28;20498;-77
2022/11/06 11:18:43;;;;;;;;;;;;;;;9.24;100.00;100776.66;5043420;28;20312;-77
2022/11/06 11:21:17;;;;;;;;;;;;;;;9.28;100.00;100769.47;5056349;28;21507;-76
2022/11/06 11:24:01;;;;;;;;;;;;;;;9.30;100.00;100762.34;5026788;28;20113;-77
2022/11/06 11:26:27;;;;;;;;;;;;;;;9.33;100.00;100754.25;5027937;28;20085;-76
2022/11/06 11:28:53;;;;;;;;;;;;;;;9.35;100.00;100744.50;5028477;28;19935;-77
2022/11/06 11:31:19;;;;;;;;;;;;;;;9.36;100.00;100740.94;5042636;28;20413;-77
2022/11/06 11:33:52;;;;;;;;;;;;;;;9.39;100.00;100726.75;5027563;28;20161;-76
2022/11/06 11:36:17;;;;;;;;;;;;;;;9.45;100.00;100728.25;5041671;28;20024;-75
2022/11/06 11:38:42;;;;;;;;;;;;;;;9.48;100.00;100718.41;5039527;28;20318;-77
2022/11/06 11:41:11;;;;;;;;;;;;;;;9.53;100.00;100720.00;5027145;28;19935;-78
2022/11/06 11:43:36;;;;;;;;;;;;;;;9.57;100.00;100717.16;5041898;28;19925;-77
2022/11/06 11:46:02;;;;;;;;;;;;;;;9.62;100.00;100698.47;5040080;28;19928;-77
2022/11/06 11:48:39;;;;;;;;;;;;;;;9.67;100.00;100690.31;5042485;28;21509;-77
2022/11/06 11:51:11;;;;;;;;;;;;;;;9.72;100.00;100680.41;5025842;28;19924;-77
2022/11/06 11:53:37;;;;;;;;;;;;;;;9.77;100.00;100665.22;5026575;28;20091;-77
2022/11/06 11:56:02;;;;;;;;;;;;;;;9.81;100.00;100665.94;5012222;28;20017;-76
2022/11/06 11:58:29;;;;;;;;;;;;;;;9.82;100.00;100660.56;5038943;28;20665;-77
2022/11/06 12:00:55;;;;;;;;;;;;;;;9.85;100.00;100665.72;5023713;28;19929;-76
2022/11/06 12:03:21;;;;;;;;;;;;;;;9.87;100.00;100650.63;5023273;28;19932;-77
2022/11/06 12:05:46;;;;;;;;;;;;;;;9.90;100.00;100655.78;5025889;28;20474;-76
2022/11/06 12:08:13;;;;;;;;;;;;;;;9.93;100.00;100654.78;5041542;28;20663;-77
2022/11/06 12:10:39;;;;;;;;;;;;;;;9.94;100.00;100651.22;5026625;28;20171;-77
2022/11/06 12:13:17;;;;;;;;;;;;;;;9.99;100.00;100648.34;5022423;28;20379;-77
2022/11/06 12:15:50;;;;;;;;;;;;;;;10.03;100.00;100644.66;5042465;28;19925;-77
2022/11/06 12:18:16;;;;;;;;;;;;;;;10.04;100.00;100635.78;5042324;28;20027;-76
2022/11/06 12:20:47;;;;;;;;;;;;;;;10.04;100.00;100628.69;5041293;28;19929;-77
2022/11/06 12:23:19;;;;;;;;;;;;;;;10.07;100.00;100625.03;5042708;28;20272;-76
2022/11/06 12:25:47;;;;;;;;;;;;;;;10.06;100.00;100625.97;5028608;28;20011;-77
2022/11/06 12:28:13;;;;;;;;;;;;;;;10.06;100.00;100610.13;5028152;28;20377;-76
2022/11/06 12:30:39;;;;;;;;;;;;;;;10.07;100.00;100609.19;5026556;28;19928;-77
2022/11/06 12:33:10;;;;;;;;;;;;;;;10.06;100.00;100612.75;5027145;28;20393;-76
2022/11/06 12:35:38;;;;;;;;;;;;;;;10.07;100.00;100603.03;5041530;28;20649;-77
2022/11/06 12:38:30;;;;;;;;;;;;;;;10.07;100.00;100606.53;5042231;28;19932;-77
2022/11/06 12:41:03;;;;;;;;;;;;;;;10.09;100.00;100612.63;5040477;28;20382;-77
2022/11/06 12:43:45;;;;;;;;;;;;;;;10.10;100.00;100603.75;5041487;28;19929;-76
2022/11/06 12:46:30;;;;;;;;;;;;;;;10.10;100.00;100605.53;5042268;28;20529;-76
2022/11/06 12:49:31;;;;;;;;;;;;;;;10.10;100.00;100606.41;5042065;28;19928;-77
2022/11/06 12:52:15;;;;;;;;;;;;;;;10.09;100.00;100602.06;4971245;28;20005;-76